Weather at Cape Borda Airport

Public forecast

Using degrees Celsius for public forecast. Weather courtesy of forecast.io.

Closest aviation weather report (METAR) to Cape Borda Airport

Closest report is Adelaide International Airport, 106.5 nm (197.2 km) ENE. Retrieved 2021/06/24 19:00 UTC (28 minutes ago):

YPAD 241900Z 24015KT 9999 FEW023 BKN029 BKN035 12/08 Q1013

Closest aviation forecast (TAF) to Cape Borda Airport

Closest forecast is Adelaide International Airport, 106.5 nm (197.2 km) ENE. Retrieved 2021/06/24 18:00 UTC (1 hour ago):

TAF YPAD 241705Z 2418/2600 23013KT 9999 -SHRA SCT015 BKN025 FM250000 24014KT 9999 -SHRA SCT010 BKN020 FM250700 21012KT 9999 -SHRA SCT012 BKN025 FM251500 23008KT 9999 NSW SCT020 BKN030 INTER 2500/2512 4000 SHRA BKN012 BKN020